Ana Sayfa
METAR-TAF:

METAR-TAF

Havaalanları :

Sallisaw, Oklahoma, Amerika Birleşik Devletleri

Enlem: 35-26-17N, Boylam: 094-48-10W, yükseklik: 161 m

Güncel hava durumu gözlemi

Rapor saat 14:35 UTC de 32 dakika önce yapıldı.
Rüzgar güneybatıdan 5 kt ve 11 kt'a kadar ani rüzgarlar
Sıcaklık 31°C
Nem 66%
Basınç 1014 hPa
Görüş mesafesi: 16.1 km
Açık gökyüzü

METAR: KJSV 251435Z AUTO 23005G11KT 10SM CLR 31/24 A2993 RMK AO2

Saat: 10:07 (15:07 UTC)


TAF: eksik

4.000'den fazla havaalanı için hava durumu gözlemleri ve tahminleri (METAR ve TAF raporları).

Kullanılabilir istasyonlar harita üzerinde sarı ve kırmızı noktalarla gösterilir.

İstasyonun adını görmek için fareyi noktanın üzerinde gezdirin.

Sonrasında hava gözlem ve tahminlerini görmek için tıklayın.

Haritayı değiştirmek için: yaklaştırmak için siyah artı işaretli yeşil düğmeye ve uzaklaştırmak için de eksi işaretli düğmeye hızla tıklayın; bitişik haritalar için yeşil okları kullanın.


METAR-TAF: